sensor_id;sensor_type;location;lat;lon;timestamp;temperature;humidity
38333;DHT22;25748;46.670;14.272;2024-03-23T00:52:48;7.70;67.20
38333;DHT22;25748;46.670;14.272;2024-03-23T00:55:13;7.70;67.40
38333;DHT22;25748;46.670;14.272;2024-03-23T00:57:39;7.60;67.30
38333;DHT22;25748;46.670;14.272;2024-03-23T01:00:05;7.60;67.30
38333;DHT22;25748;46.670;14.272;2024-03-23T01:02:32;7.60;67.30
38333;DHT22;25748;46.670;14.272;2024-03-23T01:04:58;7.50;67.10
38333;DHT22;25748;46.670;14.272;2024-03-23T01:07:23;7.50;67.40
38333;DHT22;25748;46.670;14.272;2024-03-23T01:09:49;7.40;67.40
38333;DHT22;25748;46.670;14.272;2024-03-23T01:12:15;7.40;67.60
38333;DHT22;25748;46.670;14.272;2024-03-23T01:14:40;7.40;67.60
38333;DHT22;25748;46.670;14.272;2024-03-23T01:17:06;7.30;67.30
38333;DHT22;25748;46.670;14.272;2024-03-23T01:19:32;7.30;67.10
38333;DHT22;25748;46.670;14.272;2024-03-23T01:21:57;7.20;67.10
38333;DHT22;25748;46.670;14.272;2024-03-23T01:24:23;7.10;67.10
38333;DHT22;25748;46.670;14.272;2024-03-23T01:26:48;7.10;67.50
38333;DHT22;25748;46.670;14.272;2024-03-23T01:29:14;7.10;68.00
38333;DHT22;25748;46.670;14.272;2024-03-23T01:31:40;7.00;68.10
38333;DHT22;25748;46.670;14.272;2024-03-23T01:34:05;7.00;68.30
38333;DHT22;25748;46.670;14.272;2024-03-23T01:36:31;6.90;67.80
38333;DHT22;25748;46.670;14.272;2024-03-23T01:38:57;6.90;68.20
38333;DHT22;25748;46.670;14.272;2024-03-23T01:41:24;6.90;68.20
38333;DHT22;25748;46.670;14.272;2024-03-23T01:43:50;6.80;68.20
38333;DHT22;25748;46.670;14.272;2024-03-23T01:46:16;6.80;68.10
38333;DHT22;25748;46.670;14.272;2024-03-23T01:48:42;6.70;67.60
38333;DHT22;25748;46.670;14.272;2024-03-23T01:51:08;6.60;67.60
38333;DHT22;25748;46.670;14.272;2024-03-23T01:53:34;6.60;67.70
38333;DHT22;25748;46.670;14.272;2024-03-23T01:56:00;6.60;67.80
38333;DHT22;25748;46.670;14.272;2024-03-23T01:58:27;6.50;67.10
38333;DHT22;25748;46.670;14.272;2024-03-23T02:00:53;6.40;67.20
38333;DHT22;25748;46.670;14.272;2024-03-23T02:03:23;6.40;67.10
38333;DHT22;25748;46.670;14.272;2024-03-23T02:05:50;6.30;66.50
38333;DHT22;25748;46.670;14.272;2024-03-23T02:08:23;6.20;66.60
38333;DHT22;25748;46.670;14.272;2024-03-23T02:10:50;6.20;67.10
38333;DHT22;25748;46.670;14.272;2024-03-23T02:13:17;6.10;66.70
38333;DHT22;25748;46.670;14.272;2024-03-23T02:15:43;6.10;67.20
38333;DHT22;25748;46.670;14.272;2024-03-23T02:18:09;6.00;67.10
38333;DHT22;25748;46.670;14.272;2024-03-23T02:20:38;6.00;67.60
38333;DHT22;25748;46.670;14.272;2024-03-23T02:23:16;6.00;67.60
38333;DHT22;25748;46.670;14.272;2024-03-23T02:25:42;5.90;67.90
38333;DHT22;25748;46.670;14.272;2024-03-23T02:28:08;5.90;68.00
38333;DHT22;25748;46.670;14.272;2024-03-23T02:30:33;5.90;68.30
38333;DHT22;25748;46.670;14.272;2024-03-23T02:32:59;5.90;68.40
38333;DHT22;25748;46.670;14.272;2024-03-23T02:35:25;5.90;68.40
38333;DHT22;25748;46.670;14.272;2024-03-23T02:37:51;5.80;68.00
38333;DHT22;25748;46.670;14.272;2024-03-23T02:40:17;5.80;68.30
38333;DHT22;25748;46.670;14.272;2024-03-23T02:42:42;5.80;68.60
38333;DHT22;25748;46.670;14.272;2024-03-23T02:45:08;5.80;68.80
38333;DHT22;25748;46.670;14.272;2024-03-23T02:47:34;5.80;69.00
38333;DHT22;25748;46.670;14.272;2024-03-23T02:50:00;5.80;69.30
38333;DHT22;25748;46.670;14.272;2024-03-23T02:52:26;5.80;69.30
38333;DHT22;25748;46.670;14.272;2024-03-23T02:54:51;5.80;69.50
38333;DHT22;25748;46.670;14.272;2024-03-23T02:57:17;5.80;69.80
38333;DHT22;25748;46.670;14.272;2024-03-23T02:59:43;5.80;70.00
38333;DHT22;25748;46.670;14.272;2024-03-23T03:02:08;5.80;70.10
38333;DHT22;25748;46.670;14.272;2024-03-23T03:04:34;5.90;70.30
38333;DHT22;25748;46.670;14.272;2024-03-23T03:07:00;5.90;70.50
38333;DHT22;25748;46.670;14.272;2024-03-23T03:09:26;5.90;70.10
38333;DHT22;25748;46.670;14.272;2024-03-23T03:11:51;5.80;70.10
38333;DHT22;25748;46.670;14.272;2024-03-23T03:14:17;5.80;70.10
38333;DHT22;25748;46.670;14.272;2024-03-23T03:16:43;5.80;70.20
38333;DHT22;25748;46.670;14.272;2024-03-23T03:19:08;5.80;70.40
38333;DHT22;25748;46.670;14.272;2024-03-23T03:21:36;5.80;70.50
38333;DHT22;25748;46.670;14.272;2024-03-23T03:24:02;5.80;70.30
38333;DHT22;25748;46.670;14.272;2024-03-23T03:26:28;5.70;70.30
38333;DHT22;25748;46.670;14.272;2024-03-23T03:28:53;5.70;70.50
38333;DHT22;25748;46.670;14.272;2024-03-23T03:31:19;5.70;70.60
38333;DHT22;25748;46.670;14.272;2024-03-23T03:33:45;5.80;70.80
38333;DHT22;25748;46.670;14.272;2024-03-23T03:36:11;5.70;70.80
38333;DHT22;25748;46.670;14.272;2024-03-23T03:38:36;5.70;70.70
38333;DHT22;25748;46.670;14.272;2024-03-23T03:41:04;5.70;70.90
38333;DHT22;25748;46.670;14.272;2024-03-23T03:43:31;5.70;70.60
38333;DHT22;25748;46.670;14.272;2024-03-23T03:45:58;5.70;70.60
38333;DHT22;25748;46.670;14.272;2024-03-23T03:48:24;5.70;70.60
38333;DHT22;25748;46.670;14.272;2024-03-23T03:50:50;5.60;70.60
38333;DHT22;25748;46.670;14.272;2024-03-23T03:53:16;5.60;70.70
38333;DHT22;25748;46.670;14.272;2024-03-23T03:55:41;5.60;70.80
38333;DHT22;25748;46.670;14.272;2024-03-23T03:58:07;5.60;70.80
38333;DHT22;25748;46.670;14.272;2024-03-23T04:00:33;5.60;70.60
38333;DHT22;25748;46.670;14.272;2024-03-23T04:02:58;5.60;70.40
38333;DHT22;25748;46.670;14.272;2024-03-23T04:05:24;5.50;70.30
38333;DHT22;25748;46.670;14.272;2024-03-23T04:07:50;5.50;70.10
38333;DHT22;25748;46.670;14.272;2024-03-23T04:10:16;5.40;69.80
38333;DHT22;25748;46.670;14.272;2024-03-23T04:12:43;5.40;69.70
38333;DHT22;25748;46.670;14.272;2024-03-23T04:15:08;5.30;69.50
38333;DHT22;25748;46.670;14.272;2024-03-23T04:17:34;5.20;69.60
38333;DHT22;25748;46.670;14.272;2024-03-23T04:20:01;5.20;69.60
38333;DHT22;25748;46.670;14.272;2024-03-23T04:22:27;5.20;69.50
38333;DHT22;25748;46.670;14.272;2024-03-23T04:24:56;5.10;69.40
38333;DHT22;25748;46.670;14.272;2024-03-23T04:27:23;5.10;69.50
38333;DHT22;25748;46.670;14.272;2024-03-23T04:29:49;5.00;69.30
38333;DHT22;25748;46.670;14.272;2024-03-23T04:32:16;4.90;69.80
38333;DHT22;25748;46.670;14.272;2024-03-23T04:34:42;5.00;70.10
38333;DHT22;25748;46.670;14.272;2024-03-23T04:37:09;4.90;70.40
38333;DHT22;25748;46.670;14.272;2024-03-23T04:39:36;4.90;70.60
38333;DHT22;25748;46.670;14.272;2024-03-23T04:42:02;4.90;70.70
38333;DHT22;25748;46.670;14.272;2024-03-23T04:44:28;4.90;70.80
38333;DHT22;25748;46.670;14.272;2024-03-23T04:46:54;4.90;70.70
38333;DHT22;25748;46.670;14.272;2024-03-23T04:49:19;4.90;70.50
38333;DHT22;25748;46.670;14.272;2024-03-23T04:51:45;4.90;70.80
38333;DHT22;25748;46.670;14.272;2024-03-23T04:54:15;4.90;71.00
38333;DHT22;25748;46.670;14.272;2024-03-23T04:56:41;4.90;71.20
38333;DHT22;25748;46.670;14.272;2024-03-23T04:59:07;4.80;71.20
38333;DHT22;25748;46.670;14.272;2024-03-23T05:01:33;4.80;71.40
38333;DHT22;25748;46.670;14.272;2024-03-23T05:03:59;4.90;71.50
38333;DHT22;25748;46.670;14.272;2024-03-23T05:06:25;4.90;71.70
38333;DHT22;25748;46.670;14.272;2024-03-23T05:08:51;4.90;71.50
38333;DHT22;25748;46.670;14.272;2024-03-23T05:11:17;4.90;71.60
38333;DHT22;25748;46.670;14.272;2024-03-23T05:13:44;4.90;71.50
38333;DHT22;25748;46.670;14.272;2024-03-23T05:16:09;4.80;71.70
38333;DHT22;25748;46.670;14.272;2024-03-23T05:18:35;4.90;72.00
38333;DHT22;25748;46.670;14.272;2024-03-23T05:21:02;4.90;72.10
38333;DHT22;25748;46.670;14.272;2024-03-23T05:23:30;4.90;72.20
38333;DHT22;25748;46.670;14.272;2024-03-23T05:25:56;5.00;72.50
38333;DHT22;25748;46.670;14.272;2024-03-23T05:28:22;5.00;72.70
38333;DHT22;25748;46.670;14.272;2024-03-23T05:30:54;5.00;72.80
38333;DHT22;25748;46.670;14.272;2024-03-23T05:33:20;5.00;72.70
38333;DHT22;25748;46.670;14.272;2024-03-23T05:35:46;5.00;72.80
38333;DHT22;25748;46.670;14.272;2024-03-23T05:38:13;5.10;73.10
38333;DHT22;25748;46.670;14.272;2024-03-23T05:40:39;5.10;73.20
38333;DHT22;25748;46.670;14.272;2024-03-23T05:43:08;5.10;73.30
38333;DHT22;25748;46.670;14.272;2024-03-23T05:45:34;5.20;73.70
38333;DHT22;25748;46.670;14.272;2024-03-23T05:48:00;5.30;74.20
38333;DHT22;25748;46.670;14.272;2024-03-23T05:50:26;5.30;74.40
38333;DHT22;25748;46.670;14.272;2024-03-23T05:52:52;5.40;74.60
38333;DHT22;25748;46.670;14.272;2024-03-23T05:55:17;5.50;75.00
38333;DHT22;25748;46.670;14.272;2024-03-23T05:57:43;5.60;75.30
38333;DHT22;25748;46.670;14.272;2024-03-23T06:00:10;5.60;75.60
38333;DHT22;25748;46.670;14.272;2024-03-23T06:02:44;5.80;76.00
38333;DHT22;25748;46.670;14.272;2024-03-23T06:05:13;5.90;76.30
38333;DHT22;25748;46.670;14.272;2024-03-23T06:07:39;5.90;76.50
38333;DHT22;25748;46.670;14.272;2024-03-23T06:10:05;6.00;76.60
38333;DHT22;25748;46.670;14.272;2024-03-23T06:12:31;6.10;76.80
38333;DHT22;25748;46.670;14.272;2024-03-23T06:14:57;6.20;77.00
38333;DHT22;25748;46.670;14.272;2024-03-23T06:17:23;6.30;77.00
38333;DHT22;25748;46.670;14.272;2024-03-23T06:19:49;6.30;77.00
38333;DHT22;25748;46.670;14.272;2024-03-23T06:22:15;6.40;77.00
38333;DHT22;25748;46.670;14.272;2024-03-23T06:24:41;6.40;77.00
38333;DHT22;25748;46.670;14.272;2024-03-23T06:27:06;6.50;76.70
38333;DHT22;25748;46.670;14.272;2024-03-23T06:29:32;6.60;77.00
38333;DHT22;25748;46.670;14.272;2024-03-23T06:31:58;6.60;77.10
38333;DHT22;25748;46.670;14.272;2024-03-23T06:34:24;6.70;77.20
38333;DHT22;25748;46.670;14.272;2024-03-23T06:36:49;6.80;77.40
38333;DHT22;25748;46.670;14.272;2024-03-23T06:39:17;6.90;77.60
38333;DHT22;25748;46.670;14.272;2024-03-23T06:41:50;6.90;77.70
38333;DHT22;25748;46.670;14.272;2024-03-23T06:44:16;7.00;77.90
38333;DHT22;25748;46.670;14.272;2024-03-23T06:46:42;7.10;77.90
38333;DHT22;25748;46.670;14.272;2024-03-23T06:49:08;7.20;78.10
38333;DHT22;25748;46.670;14.272;2024-03-23T06:51:34;7.30;78.10
38333;DHT22;25748;46.670;14.272;2024-03-23T06:53:59;7.40;78.10
38333;DHT22;25748;46.670;14.272;2024-03-23T06:56:25;7.60;78.00
38333;DHT22;25748;46.670;14.272;2024-03-23T06:58:51;7.60;78.00
38333;DHT22;25748;46.670;14.272;2024-03-23T07:01:16;7.70;78.00
38333;DHT22;25748;46.670;14.272;2024-03-23T07:03:42;7.80;78.00
38333;DHT22;25748;46.670;14.272;2024-03-23T07:06:09;7.90;77.60
38333;DHT22;25748;46.670;14.272;2024-03-23T07:08:36;8.00;77.40
38333;DHT22;25748;46.670;14.272;2024-03-23T07:11:02;8.00;77.40
38333;DHT22;25748;46.670;14.272;2024-03-23T07:13:28;8.10;77.20
38333;DHT22;25748;46.670;14.272;2024-03-23T07:15:54;8.20;77.10
38333;DHT22;25748;46.670;14.272;2024-03-23T07:18:21;8.30;77.10
38333;DHT22;25748;46.670;14.272;2024-03-23T07:20:56;8.40;76.70
38333;DHT22;25748;46.670;14.272;2024-03-23T07:23:23;8.50;76.50
38333;DHT22;25748;46.670;14.272;2024-03-23T07:26:02;8.50;76.00
38333;DHT22;25748;46.670;14.272;2024-03-23T07:28:28;8.60;75.60
38333;DHT22;25748;46.670;14.272;2024-03-23T07:31:07;8.60;75.10
38333;DHT22;25748;46.670;14.272;2024-03-23T07:33:41;8.70;75.40
38333;DHT22;25748;46.670;14.272;2024-03-23T07:36:06;8.90;76.00
38333;DHT22;25748;46.670;14.272;2024-03-23T07:38:33;9.10;76.20
38333;DHT22;25748;46.670;14.272;2024-03-23T07:41:31;9.30;75.70
38333;DHT22;25748;46.670;14.272;2024-03-23T07:43:56;9.50;76.10
38333;DHT22;25748;46.670;14.272;2024-03-23T07:46:22;9.70;75.80
38333;DHT22;25748;46.670;14.272;2024-03-23T07:48:48;10.00;75.10
38333;DHT22;25748;46.670;14.272;2024-03-23T07:51:22;10.20;74.20
38333;DHT22;25748;46.670;14.272;2024-03-23T07:53:48;10.40;73.20
38333;DHT22;25748;46.670;14.272;2024-03-23T07:56:15;10.60;71.80
38333;DHT22;25748;46.670;14.272;2024-03-23T07:58:41;10.80;70.10
38333;DHT22;25748;46.670;14.272;2024-03-23T08:01:09;11.00;69.10
38333;DHT22;25748;46.670;14.272;2024-03-23T08:03:35;11.20;66.80
38333;DHT22;25748;46.670;14.272;2024-03-23T08:06:17;11.40;67.10
38333;DHT22;25748;46.670;14.272;2024-03-23T08:08:46;11.60;65.50
38333;DHT22;25748;46.670;14.272;2024-03-23T08:11:12;11.70;65.40
38333;DHT22;25748;46.670;14.272;2024-03-23T08:13:39;11.80;64.60
38333;DHT22;25748;46.670;14.272;2024-03-23T08:16:05;12.00;62.80
38333;DHT22;25748;46.670;14.272;2024-03-23T08:18:31;12.10;62.60
38333;DHT22;25748;46.670;14.272;2024-03-23T08:21:02;12.30;62.20
38333;DHT22;25748;46.670;14.272;2024-03-23T08:23:29;12.50;61.50
38333;DHT22;25748;46.670;14.272;2024-03-23T08:25:59;12.60;60.00
38333;DHT22;25748;46.670;14.272;2024-03-23T08:28:25;12.80;59.90
38333;DHT22;25748;46.670;14.272;2024-03-23T08:30:52;13.00;59.70
38333;DHT22;25748;46.670;14.272;2024-03-23T08:33:18;13.20;58.80
38333;DHT22;25748;46.670;14.272;2024-03-23T08:35:56;13.30;58.10
38333;DHT22;25748;46.670;14.272;2024-03-23T08:38:23;13.60;58.80
38333;DHT22;25748;46.670;14.272;2024-03-23T08:41:10;13.80;57.90
38333;DHT22;25748;46.670;14.272;2024-03-23T08:43:40;13.90;56.70
38333;DHT22;25748;46.670;14.272;2024-03-23T08:46:07;14.00;55.70
38333;DHT22;25748;46.670;14.272;2024-03-23T08:48:35;14.10;54.60
38333;DHT22;25748;46.670;14.272;2024-03-23T08:53:31;14.40;55.00
38333;DHT22;25748;46.670;14.272;2024-03-23T08:55:58;14.40;53.50
38333;DHT22;25748;46.670;14.272;2024-03-23T08:58:25;14.50;53.50
38333;DHT22;25748;46.670;14.272;2024-03-23T09:00:55;14.70;53.90
38333;DHT22;25748;46.670;14.272;2024-03-23T09:03:22;14.90;53.00
38333;DHT22;25748;46.670;14.272;2024-03-23T09:05:48;15.10;53.60
38333;DHT22;25748;46.670;14.272;2024-03-23T09:08:14;15.40;54.10
38333;DHT22;25748;46.670;14.272;2024-03-23T09:10:40;15.70;54.00
38333;DHT22;25748;46.670;14.272;2024-03-23T09:13:07;16.00;53.90
38333;DHT22;25748;46.670;14.272;2024-03-23T09:15:34;16.30;52.60
38333;DHT22;25748;46.670;14.272;2024-03-23T09:18:00;16.50;52.50
38333;DHT22;25748;46.670;14.272;2024-03-23T09:20:26;16.80;52.30
38333;DHT22;25748;46.670;14.272;2024-03-23T09:22:52;17.00;51.10
38333;DHT22;25748;46.670;14.272;2024-03-23T09:25:17;17.20;51.50
38333;DHT22;25748;46.670;14.272;2024-03-23T09:27:45;17.40;50.40
38333;DHT22;25748;46.670;14.272;2024-03-23T09:30:11;17.50;50.50
38333;DHT22;25748;46.670;14.272;2024-03-23T09:32:37;17.70;50.30
38333;DHT22;25748;46.670;14.272;2024-03-23T09:35:03;17.70;50.10
38333;DHT22;25748;46.670;14.272;2024-03-23T09:37:29;17.70;49.40
38333;DHT22;25748;46.670;14.272;2024-03-23T09:39:54;17.70;49.80
38333;DHT22;25748;46.670;14.272;2024-03-23T09:42:20;17.80;49.30
38333;DHT22;25748;46.670;14.272;2024-03-23T09:44:46;18.00;49.90
38333;DHT22;25748;46.670;14.272;2024-03-23T09:47:13;18.10;49.30
38333;DHT22;25748;46.670;14.272;2024-03-23T09:49:39;18.20;50.20
38333;DHT22;25748;46.670;14.272;2024-03-23T09:52:06;18.40;49.30
38333;DHT22;25748;46.670;14.272;2024-03-23T09:54:32;18.50;49.70
38333;DHT22;25748;46.670;14.272;2024-03-23T09:56:58;18.60;48.50
38333;DHT22;25748;46.670;14.272;2024-03-23T09:59:24;18.80;48.40
38333;DHT22;25748;46.670;14.272;2024-03-23T10:01:53;18.90;48.40
38333;DHT22;25748;46.670;14.272;2024-03-23T10:04:41;19.10;48.10
38333;DHT22;25748;46.670;14.272;2024-03-23T10:07:15;19.30;48.60
38333;DHT22;25748;46.670;14.272;2024-03-23T10:09:42;19.50;47.70
38333;DHT22;25748;46.670;14.272;2024-03-23T10:12:16;19.70;47.90
38333;DHT22;25748;46.670;14.272;2024-03-23T10:14:43;19.90;47.60
38333;DHT22;25748;46.670;14.272;2024-03-23T10:17:15;20.00;45.90
38333;DHT22;25748;46.670;14.272;2024-03-23T10:19:44;20.20;46.20
38333;DHT22;25748;46.670;14.272;2024-03-23T10:22:12;20.40;46.10
38333;DHT22;25748;46.670;14.272;2024-03-23T10:24:38;20.50;45.30
38333;DHT22;25748;46.670;14.272;2024-03-23T10:27:04;20.50;43.20
38333;DHT22;25748;46.670;14.272;2024-03-23T10:29:30;20.60;44.00
38333;DHT22;25748;46.670;14.272;2024-03-23T10:32:08;20.60;43.80
38333;DHT22;25748;46.670;14.272;2024-03-23T10:34:37;20.60;43.00
38333;DHT22;25748;46.670;14.272;2024-03-23T10:37:03;20.60;43.10
38333;DHT22;25748;46.670;14.272;2024-03-23T10:39:37;20.50;42.60
38333;DHT22;25748;46.670;14.272;2024-03-23T10:42:04;20.40;43.10
38333;DHT22;25748;46.670;14.272;2024-03-23T10:44:31;20.30;42.50
38333;DHT22;25748;46.670;14.272;2024-03-23T10:46:58;20.40;41.80
38333;DHT22;25748;46.670;14.272;2024-03-23T10:49:28;20.30;43.10
38333;DHT22;25748;46.670;14.272;2024-03-23T10:52:02;20.30;41.50
38333;DHT22;25748;46.670;14.272;2024-03-23T10:54:30;20.40;42.20
38333;DHT22;25748;46.670;14.272;2024-03-23T10:57:13;20.40;41.70
38333;DHT22;25748;46.670;14.272;2024-03-23T10:59:40;20.40;41.30
38333;DHT22;25748;46.670;14.272;2024-03-23T11:02:05;20.40;41.30
38333;DHT22;25748;46.670;14.272;2024-03-23T11:04:38;20.50;41.30
38333;DHT22;25748;46.670;14.272;2024-03-23T11:09:53;20.50;41.20
38333;DHT22;25748;46.670;14.272;2024-03-23T11:12:29;20.60;40.90
38333;DHT22;25748;46.670;14.272;2024-03-23T11:15:26;20.50;40.30
38333;DHT22;25748;46.670;14.272;2024-03-23T11:18:07;20.40;40.60
38333;DHT22;25748;46.670;14.272;2024-03-23T11:20:37;20.40;40.40
38333;DHT22;25748;46.670;14.272;2024-03-23T11:23:04;20.50;41.20
38333;DHT22;25748;46.670;14.272;2024-03-23T11:25:29;20.60;41.00
38333;DHT22;25748;46.670;14.272;2024-03-23T11:27:57;20.80;41.30
38333;DHT22;25748;46.670;14.272;2024-03-23T11:30:27;20.80;41.00
38333;DHT22;25748;46.670;14.272;2024-03-23T11:32:57;20.90;40.30
38333;DHT22;25748;46.670;14.272;2024-03-23T11:35:33;21.00;40.40
38333;DHT22;25748;46.670;14.272;2024-03-23T11:40:46;20.80;39.70
38333;DHT22;25748;46.670;14.272;2024-03-23T11:43:16;20.80;40.20
38333;DHT22;25748;46.670;14.272;2024-03-23T11:45:47;20.80;40.60
38333;DHT22;25748;46.670;14.272;2024-03-23T11:48:13;20.70;40.50
38333;DHT22;25748;46.670;14.272;2024-03-23T11:50:42;20.60;40.60
38333;DHT22;25748;46.670;14.272;2024-03-23T11:58:14;20.30;40.10
38333;DHT22;25748;46.670;14.272;2024-03-23T12:00:40;20.20;40.20
38333;DHT22;25748;46.670;14.272;2024-03-23T12:03:06;20.10;40.40
38333;DHT22;25748;46.670;14.272;2024-03-23T12:05:33;19.90;40.10
38333;DHT22;25748;46.670;14.272;2024-03-23T12:08:20;19.80;39.70
38333;DHT22;25748;46.670;14.272;2024-03-23T12:11:06;19.80;40.80
38333;DHT22;25748;46.670;14.272;2024-03-23T12:13:33;19.80;41.40
38333;DHT22;25748;46.670;14.272;2024-03-23T12:16:16;19.80;40.90
38333;DHT22;25748;46.670;14.272;2024-03-23T12:18:43;19.80;40.60
38333;DHT22;25748;46.670;14.272;2024-03-23T12:21:09;19.90;40.90
38333;DHT22;25748;46.670;14.272;2024-03-23T12:23:35;19.90;41.10
38333;DHT22;25748;46.670;14.272;2024-03-23T12:26:01;20.00;40.30
38333;DHT22;25748;46.670;14.272;2024-03-23T12:28:27;20.00;40.50
38333;DHT22;25748;46.670;14.272;2024-03-23T12:30:53;20.10;41.20
38333;DHT22;25748;46.670;14.272;2024-03-23T12:33:20;20.20;40.50
38333;DHT22;25748;46.670;14.272;2024-03-23T12:35:45;20.20;40.50
38333;DHT22;25748;46.670;14.272;2024-03-23T12:38:11;20.30;41.30
38333;DHT22;25748;46.670;14.272;2024-03-23T12:40:37;20.30;39.70
38333;DHT22;25748;46.670;14.272;2024-03-23T12:43:02;20.50;40.30
38333;DHT22;25748;46.670;14.272;2024-03-23T12:45:28;20.60;40.20
38333;DHT22;25748;46.670;14.272;2024-03-23T12:47:53;20.40;39.10
38333;DHT22;25748;46.670;14.272;2024-03-23T12:50:20;20.30;39.10
38333;DHT22;25748;46.670;14.272;2024-03-23T12:52:45;20.10;39.60
38333;DHT22;25748;46.670;14.272;2024-03-23T12:55:11;20.00;39.50
38333;DHT22;25748;46.670;14.272;2024-03-23T12:57:37;19.80;39.70
38333;DHT22;25748;46.670;14.272;2024-03-23T13:00:03;19.70;39.70
38333;DHT22;25748;46.670;14.272;2024-03-23T13:02:29;19.50;39.20
38333;DHT22;25748;46.670;14.272;2024-03-23T13:04:55;19.40;40.20
38333;DHT22;25748;46.670;14.272;2024-03-23T13:07:22;19.30;40.50
38333;DHT22;25748;46.670;14.272;2024-03-23T13:09:52;19.10;41.10
38333;DHT22;25748;46.670;14.272;2024-03-23T13:12:22;19.00;40.10
38333;DHT22;25748;46.670;14.272;2024-03-23T13:14:47;18.90;39.90
38333;DHT22;25748;46.670;14.272;2024-03-23T13:17:14;18.80;39.90
38333;DHT22;25748;46.670;14.272;2024-03-23T13:19:42;18.70;40.30
38333;DHT22;25748;46.670;14.272;2024-03-23T13:22:08;18.60;40.60
38333;DHT22;25748;46.670;14.272;2024-03-23T13:24:40;18.50;40.90
38333;DHT22;25748;46.670;14.272;2024-03-23T13:27:06;18.40;40.00
38333;DHT22;25748;46.670;14.272;2024-03-23T13:29:33;18.30;41.40
38333;DHT22;25748;46.670;14.272;2024-03-23T13:32:00;18.30;41.50
38333;DHT22;25748;46.670;14.272;2024-03-23T13:34:25;18.20;41.20
38333;DHT22;25748;46.670;14.272;2024-03-23T13:36:51;18.10;41.20
38333;DHT22;25748;46.670;14.272;2024-03-23T13:39:17;17.90;42.10
38333;DHT22;25748;46.670;14.272;2024-03-23T13:41:44;17.90;41.50
38333;DHT22;25748;46.670;14.272;2024-03-23T13:44:12;17.80;41.90
38333;DHT22;25748;46.670;14.272;2024-03-23T13:46:39;17.70;42.20
38333;DHT22;25748;46.670;14.272;2024-03-23T13:49:06;17.70;42.70
38333;DHT22;25748;46.670;14.272;2024-03-23T13:51:32;17.60;41.80
38333;DHT22;25748;46.670;14.272;2024-03-23T13:53:57;17.60;41.90
38333;DHT22;25748;46.670;14.272;2024-03-23T13:56:29;17.60;42.00
38333;DHT22;25748;46.670;14.272;2024-03-23T13:58:57;17.50;42.20
38333;DHT22;25748;46.670;14.272;2024-03-23T14:01:23;17.50;41.90
38333;DHT22;25748;46.670;14.272;2024-03-23T14:03:49;17.40;41.90
38333;DHT22;25748;46.670;14.272;2024-03-23T14:06:15;17.50;42.60
38333;DHT22;25748;46.670;14.272;2024-03-23T14:08:41;17.50;42.10
38333;DHT22;25748;46.670;14.272;2024-03-23T14:11:09;17.60;41.90
38333;DHT22;25748;46.670;14.272;2024-03-23T14:13:35;17.70;42.40
38333;DHT22;25748;46.670;14.272;2024-03-23T14:16:01;17.70;42.10
38333;DHT22;25748;46.670;14.272;2024-03-23T14:18:27;17.60;42.20
38333;DHT22;25748;46.670;14.272;2024-03-23T14:20:59;17.50;41.60
38333;DHT22;25748;46.670;14.272;2024-03-23T14:23:28;17.40;42.00
38333;DHT22;25748;46.670;14.272;2024-03-23T14:26:00;17.20;41.80
38333;DHT22;25748;46.670;14.272;2024-03-23T14:28:26;17.10;42.40
38333;DHT22;25748;46.670;14.272;2024-03-23T14:30:54;17.00;42.30
38333;DHT22;25748;46.670;14.272;2024-03-23T14:33:20;16.90;42.60
38333;DHT22;25748;46.670;14.272;2024-03-23T14:35:53;16.90;43.20
38333;DHT22;25748;46.670;14.272;2024-03-23T14:38:19;16.90;43.40
38333;DHT22;25748;46.670;14.272;2024-03-23T14:40:46;17.10;43.10
38333;DHT22;25748;46.670;14.272;2024-03-23T14:43:11;17.20;43.20
38333;DHT22;25748;46.670;14.272;2024-03-23T14:45:37;17.30;42.50
38333;DHT22;25748;46.670;14.272;2024-03-23T14:48:03;17.40;42.30
38333;DHT22;25748;46.670;14.272;2024-03-23T14:50:29;17.40;42.00
38333;DHT22;25748;46.670;14.272;2024-03-23T14:52:55;17.40;42.50
38333;DHT22;25748;46.670;14.272;2024-03-23T14:55:20;17.40;42.50
38333;DHT22;25748;46.670;14.272;2024-03-23T14:57:46;17.40;42.50
38333;DHT22;25748;46.670;14.272;2024-03-23T15:00:12;17.30;42.10
38333;DHT22;25748;46.670;14.272;2024-03-23T15:02:38;17.30;42.50
38333;DHT22;25748;46.670;14.272;2024-03-23T15:05:04;17.20;41.90
38333;DHT22;25748;46.670;14.272;2024-03-23T15:07:31;17.10;42.70
38333;DHT22;25748;46.670;14.272;2024-03-23T15:09:57;17.00;42.40
38333;DHT22;25748;46.670;14.272;2024-03-23T15:12:22;16.90;42.60
38333;DHT22;25748;46.670;14.272;2024-03-23T15:14:48;16.80;42.50
38333;DHT22;25748;46.670;14.272;2024-03-23T15:17:14;16.70;42.50
38333;DHT22;25748;46.670;14.272;2024-03-23T15:19:40;16.60;42.80
38333;DHT22;25748;46.670;14.272;2024-03-23T15:22:08;16.60;43.10
38333;DHT22;25748;46.670;14.272;2024-03-23T15:24:34;16.50;43.50
38333;DHT22;25748;46.670;14.272;2024-03-23T15:27:01;16.40;44.40
38333;DHT22;25748;46.670;14.272;2024-03-23T15:29:27;16.40;44.00
38333;DHT22;25748;46.670;14.272;2024-03-23T15:31:53;16.30;44.00
38333;DHT22;25748;46.670;14.272;2024-03-23T15:34:19;16.20;44.00
38333;DHT22;25748;46.670;14.272;2024-03-23T15:36:50;16.20;44.50
38333;DHT22;25748;46.670;14.272;2024-03-23T15:39:18;16.20;44.30
38333;DHT22;25748;46.670;14.272;2024-03-23T15:41:47;16.10;44.70
38333;DHT22;25748;46.670;14.272;2024-03-23T15:44:13;16.10;45.00
38333;DHT22;25748;46.670;14.272;2024-03-23T15:46:39;16.10;44.70
38333;DHT22;25748;46.670;14.272;2024-03-23T15:49:05;16.10;44.30
38333;DHT22;25748;46.670;14.272;2024-03-23T15:51:31;16.10;44.80
38333;DHT22;25748;46.670;14.272;2024-03-23T15:54:00;16.00;44.90
38333;DHT22;25748;46.670;14.272;2024-03-23T15:56:26;15.90;44.60
38333;DHT22;25748;46.670;14.272;2024-03-23T15:58:51;15.90;44.40
38333;DHT22;25748;46.670;14.272;2024-03-23T16:01:17;15.90;44.30
38333;DHT22;25748;46.670;14.272;2024-03-23T16:03:43;15.90;44.70
38333;DHT22;25748;46.670;14.272;2024-03-23T16:06:09;15.90;44.80
38333;DHT22;25748;46.670;14.272;2024-03-23T16:08:34;15.80;45.00
38333;DHT22;25748;46.670;14.272;2024-03-23T16:13:27;15.80;45.90
38333;DHT22;25748;46.670;14.272;2024-03-23T16:16:00;15.70;45.90
38333;DHT22;25748;46.670;14.272;2024-03-23T16:18:26;15.70;45.80
38333;DHT22;25748;46.670;14.272;2024-03-23T16:20:59;15.60;44.70
38333;DHT22;25748;46.670;14.272;2024-03-23T16:23:25;15.40;42.70
38333;DHT22;25748;46.670;14.272;2024-03-23T16:25:52;15.00;42.10
38333;DHT22;25748;46.670;14.272;2024-03-23T16:28:34;14.60;42.30
38333;DHT22;25748;46.670;14.272;2024-03-23T16:31:02;14.10;42.40